createdAt,value
2019-04-07T00:00:11.705Z,99.90
2019-04-07T00:02:40.799Z,99.90
2019-04-07T00:05:13.838Z,99.90
2019-04-07T00:07:40.199Z,99.90
2019-04-07T00:10:11.099Z,99.90
2019-04-07T00:12:41.254Z,99.90
2019-04-07T00:15:11.435Z,99.90
2019-04-07T00:17:39.817Z,99.90
2019-04-07T00:20:08.874Z,99.90
2019-04-07T00:22:37.993Z,99.90
2019-04-07T00:25:06.795Z,99.90
2019-04-07T00:27:35.218Z,99.90
2019-04-07T00:30:23.036Z,99.90
2019-04-07T00:32:52.010Z,99.90
2019-04-07T00:35:26.880Z,99.90
2019-04-07T00:37:50.684Z,99.90
2019-04-07T00:40:19.606Z,99.90
2019-04-07T00:42:48.108Z,99.90
2019-04-07T00:45:16.514Z,99.90
2019-04-07T00:47:44.959Z,99.90
2019-04-07T00:50:14.159Z,99.90
2019-04-07T00:52:42.708Z,99.90
2019-04-07T00:55:11.639Z,99.90
2019-04-07T00:57:40.686Z,99.90
2019-04-07T01:00:11.821Z,99.90
2019-04-07T01:02:41.302Z,99.90
2019-04-07T01:05:10.516Z,99.90
2019-04-07T01:07:39.858Z,99.90
2019-04-07T01:10:17.449Z,99.90
2019-04-07T01:12:45.919Z,99.90
2019-04-07T01:15:15.074Z,99.90
2019-04-07T01:17:43.554Z,99.90
2019-04-07T01:20:12.605Z,99.90
2019-04-07T01:22:41.002Z,99.90
2019-04-07T01:25:10.527Z,99.90
2019-04-07T01:27:39.044Z,99.90
2019-04-07T01:30:07.771Z,99.90
2019-04-07T01:32:36.711Z,99.90
2019-04-07T01:35:07.057Z,99.90
2019-04-07T01:37:36.206Z,99.90
2019-04-07T01:40:06.096Z,99.90
2019-04-07T01:42:41.883Z,99.90
2019-04-07T01:45:18.233Z,99.90
2019-04-07T01:48:00.705Z,99.90
2019-04-07T01:50:48.164Z,99.90
2019-04-07T01:53:34.466Z,99.90
2019-04-07T01:56:07.670Z,99.90
2019-04-07T01:58:40.722Z,99.90
2019-04-07T02:01:10.948Z,99.90
2019-04-07T02:03:47.406Z,99.90
2019-04-07T02:06:29.954Z,99.90
2019-04-07T02:09:14.869Z,99.90
2019-04-07T02:11:45.212Z,99.90
2019-04-07T02:14:21.342Z,99.90
2019-04-07T02:17:04.267Z,99.90
2019-04-07T02:19:49.938Z,99.90
2019-04-07T02:22:35.460Z,99.90
2019-04-07T02:25:22.189Z,99.90
2019-04-07T02:28:08.382Z,99.90
2019-04-07T02:30:48.115Z,99.90
2019-04-07T02:33:18.323Z,99.90
2019-04-07T02:35:51.071Z,99.90
2019-04-07T02:38:21.156Z,99.90
2019-04-07T02:40:54.249Z,99.90
2019-04-07T02:43:27.689Z,99.90
2019-04-07T02:46:10.922Z,99.90
2019-04-07T02:48:51.156Z,99.90
2019-04-07T02:51:33.800Z,99.90
2019-04-07T02:54:20.637Z,99.90
2019-04-07T02:56:50.834Z,99.90
2019-04-07T02:59:23.985Z,99.90
2019-04-07T03:01:55.186Z,99.90
2019-04-07T03:04:26.238Z,99.90
2019-04-07T03:07:05.470Z,99.90
2019-04-07T03:09:56.812Z,99.90
2019-04-07T03:12:30.647Z,99.90
2019-04-07T03:15:06.962Z,99.90
2019-04-07T03:17:39.809Z,99.90
2019-04-07T03:20:19.394Z,99.90
2019-04-07T03:23:05.226Z,99.90
2019-04-07T03:25:42.126Z,99.90
2019-04-07T03:28:17.928Z,99.90
2019-04-07T03:30:49.584Z,99.90
2019-04-07T03:33:22.747Z,99.90
2019-04-07T03:36:06.106Z,99.90
2019-04-07T03:38:35.349Z,99.90
2019-04-07T03:41:11.978Z,99.90
2019-04-07T03:43:42.722Z,99.90
2019-04-07T03:46:16.110Z,99.90
2019-04-07T03:48:58.453Z,99.90
2019-04-07T03:51:34.417Z,99.90
2019-04-07T03:54:07.499Z,99.90
2019-04-07T03:56:47.610Z,99.90
2019-04-07T03:59:24.813Z,99.90
2019-04-07T04:02:04.687Z,99.90
2019-04-07T04:04:34.914Z,99.90
2019-04-07T04:07:17.755Z,99.90
2019-04-07T04:09:56.062Z,99.90
2019-04-07T04:12:26.167Z,99.90
2019-04-07T04:15:03.432Z,99.90
2019-04-07T04:17:32.712Z,99.90
2019-04-07T04:20:01.214Z,99.90
2019-04-07T04:22:30.690Z,99.90
2019-04-07T04:24:59.468Z,99.90
2019-04-07T04:27:28.205Z,99.90
2019-04-07T04:30:16.885Z,99.90
2019-04-07T04:32:46.334Z,99.90
2019-04-07T04:35:15.051Z,99.90
2019-04-07T04:37:48.851Z,99.90
2019-04-07T04:40:14.123Z,99.90
2019-04-07T04:42:42.638Z,99.90
2019-04-07T04:45:11.196Z,99.90
2019-04-07T04:47:40.671Z,99.90
2019-04-07T04:50:09.916Z,99.90
2019-04-07T04:52:38.409Z,99.90
2019-04-07T04:55:07.263Z,99.90
2019-04-07T04:57:35.809Z,99.90
2019-04-07T05:00:06.790Z,99.90
2019-04-07T05:02:35.241Z,99.90
2019-04-07T05:05:08.995Z,99.90
2019-04-07T05:07:48.818Z,99.90
2019-04-07T05:10:06.871Z,99.90
2019-04-07T05:12:35.314Z,99.90
2019-04-07T05:15:05.054Z,99.90
2019-04-07T05:17:33.599Z,99.90
2019-04-07T05:20:02.623Z,99.90
2019-04-07T05:22:31.153Z,99.90
2019-04-07T05:24:59.554Z,99.90
2019-04-07T05:27:27.965Z,99.90
2019-04-07T05:29:56.727Z,99.90
2019-04-07T05:32:25.229Z,99.90
2019-04-07T05:34:53.634Z,99.90
2019-04-07T05:37:23.067Z,99.90
2019-04-07T05:39:51.636Z,99.90
2019-04-07T05:42:20.171Z,99.90
2019-04-07T05:44:48.632Z,99.90
2019-04-07T05:47:17.043Z,99.90
2019-04-07T05:49:45.468Z,99.90
2019-04-07T05:52:14.001Z,99.90
2019-04-07T05:54:42.840Z,99.90
2019-04-07T05:57:11.885Z,99.90
2019-04-07T05:59:42.319Z,99.90
2019-04-07T06:02:11.098Z,99.90
2019-04-07T06:04:40.364Z,99.90
2019-04-07T06:07:09.110Z,99.90
2019-04-07T06:09:37.616Z,99.90
2019-04-07T06:12:09.082Z,99.90
2019-04-07T06:14:36.784Z,99.90
2019-04-07T06:17:05.352Z,99.90
2019-04-07T06:19:40.551Z,99.90
2019-04-07T06:22:07.440Z,99.90
2019-04-07T06:24:35.137Z,99.90
2019-04-07T06:27:04.385Z,99.90
2019-04-07T06:29:33.419Z,99.90
2019-04-07T06:32:04.535Z,99.90
2019-04-07T06:34:32.579Z,99.90
2019-04-07T06:37:01.075Z,99.90
2019-04-07T06:39:31.863Z,99.90
2019-04-07T06:42:01.383Z,99.90
2019-04-07T06:44:30.112Z,99.90
2019-04-07T06:47:03.462Z,99.90
2019-04-07T06:49:45.234Z,99.90
2019-04-07T06:52:28.567Z,99.90
2019-04-07T06:55:15.319Z,99.90
2019-04-07T06:57:48.244Z,99.90
2019-04-07T07:00:25.692Z,99.90
2019-04-07T07:03:04.258Z,99.90
2019-04-07T07:05:41.124Z,99.90
2019-04-07T07:08:11.757Z,99.90
2019-04-07T07:10:56.318Z,99.90
2019-04-07T07:13:32.211Z,99.90
2019-04-07T07:16:01.541Z,99.90
2019-04-07T07:18:32.269Z,99.90
2019-04-07T07:21:03.741Z,99.90
2019-04-07T07:23:34.178Z,99.90
2019-04-07T07:26:03.324Z,99.90
2019-04-07T07:28:32.674Z,99.90
2019-04-07T07:31:02.246Z,99.90
2019-04-07T07:33:30.762Z,99.90
2019-04-07T07:35:59.329Z,99.90
2019-04-07T07:38:32.172Z,99.90
2019-04-07T07:41:01.493Z,99.90
2019-04-07T07:43:30.275Z,99.90
2019-04-07T07:45:59.065Z,99.90
2019-04-07T07:48:28.402Z,99.90
2019-04-07T07:50:56.946Z,99.80
2019-04-07T07:53:28.107Z,99.70
2019-04-07T07:55:55.569Z,99.90
2019-04-07T07:58:27.954Z,99.90
2019-04-07T08:00:54.442Z,99.90
2019-04-07T08:03:23.006Z,99.90
2019-04-07T08:05:52.218Z,99.50
2019-04-07T08:08:25.362Z,99.10
2019-04-07T08:10:57.150Z,99.20
2019-04-07T08:13:24.767Z,99.30
2019-04-07T08:15:56.593Z,99.10
2019-04-07T08:18:23.760Z,98.80
2019-04-07T08:20:52.233Z,98.50
2019-04-07T08:23:21.002Z,98.50
2019-04-07T08:25:53.482Z,98.00
2019-04-07T08:28:20.675Z,97.80
2019-04-07T08:30:50.273Z,97.70
2019-04-07T08:33:18.948Z,97.50
2019-04-07T08:35:48.037Z,97.20
2019-04-07T08:38:19.960Z,97.40
2019-04-07T08:40:46.855Z,97.60
2019-04-07T08:43:19.699Z,97.30
2019-04-07T08:45:50.279Z,97.00
2019-04-07T08:48:20.631Z,96.80
2019-04-07T08:51:00.734Z,96.60
2019-04-07T08:53:29.467Z,96.30
2019-04-07T08:55:57.948Z,96.30
2019-04-07T08:58:29.764Z,96.10
2019-04-07T09:00:57.371Z,96.30
2019-04-07T09:03:25.989Z,95.70
2019-04-07T09:05:56.779Z,95.30
2019-04-07T09:08:24.594Z,95.00
2019-04-07T09:10:54.955Z,94.50
2019-04-07T09:13:24.077Z,94.40
2019-04-07T09:16:05.977Z,94.10
2019-04-07T09:18:57.673Z,93.50
2019-04-07T09:21:37.289Z,93.60
2019-04-07T09:24:03.794Z,92.80
2019-04-07T09:27:11.324Z,92.70
2019-04-07T09:29:47.823Z,92.50
2019-04-07T09:32:23.828Z,91.90
2019-04-07T09:34:55.850Z,91.20
2019-04-07T09:37:28.507Z,90.70
2019-04-07T09:40:07.778Z,90.60
2019-04-07T09:42:47.091Z,90.80
2019-04-07T09:45:32.467Z,90.60
2019-04-07T09:48:02.510Z,90.50
2019-04-07T09:50:32.752Z,89.50
2019-04-07T09:53:09.915Z,90.00
2019-04-07T09:55:57.964Z,90.10
2019-04-07T09:58:34.153Z,88.40
2019-04-07T10:01:28.740Z,87.80
2019-04-07T10:04:00.238Z,86.00
2019-04-07T10:06:39.136Z,85.20
2019-04-07T10:09:10.239Z,85.00
2019-04-07T10:11:56.670Z,83.50
2019-04-07T10:14:27.199Z,82.90
2019-04-07T10:17:00.033Z,82.70
2019-04-07T10:19:42.661Z,81.80
2019-04-07T10:22:21.872Z,83.10
2019-04-07T10:25:08.611Z,81.40
2019-04-07T10:27:55.657Z,81.90
2019-04-07T10:30:27.016Z,82.90
2019-04-07T10:35:38.461Z,82.40
2019-04-07T10:38:14.263Z,81.80
2019-04-07T10:41:01.010Z,82.10
2019-04-07T10:43:31.352Z,81.20
2019-04-07T10:46:07.893Z,79.80
2019-04-07T10:48:51.028Z,79.30
2019-04-07T10:51:21.219Z,79.10
2019-04-07T10:54:03.743Z,77.30
2019-04-07T10:56:37.316Z,77.50
2019-04-07T10:59:10.331Z,76.80
2019-04-07T11:01:43.411Z,75.10
2019-04-07T11:04:16.996Z,73.80
2019-04-07T11:06:50.382Z,72.40
2019-04-07T11:09:38.496Z,70.90
2019-04-07T11:12:17.862Z,71.40
2019-04-07T11:14:49.025Z,70.20
2019-04-07T11:17:19.393Z,69.50
2019-04-07T11:19:59.017Z,69.10
2019-04-07T11:22:33.104Z,70.20
2019-04-07T11:25:20.681Z,68.40
2019-04-07T11:28:07.125Z,66.70
2019-04-07T11:30:45.986Z,65.30
2019-04-07T11:33:19.322Z,65.50
2019-04-07T11:35:49.410Z,66.80
2019-04-07T11:38:22.063Z,67.80
2019-04-07T11:41:01.567Z,68.70
2019-04-07T11:43:40.862Z,66.50
2019-04-07T11:46:30.557Z,67.30
2019-04-07T11:49:00.868Z,68.20
2019-04-07T11:51:37.918Z,68.40
2019-04-07T11:54:22.975Z,68.60
2019-04-07T11:57:05.529Z,67.90
2019-04-07T11:59:39.380Z,67.60
2019-04-07T12:02:28.430Z,68.30
2019-04-07T12:05:08.199Z,67.20
2019-04-07T12:07:57.177Z,68.10
2019-04-07T12:10:35.183Z,67.00
2019-04-07T12:13:05.877Z,65.80
2019-04-07T12:15:35.975Z,65.20
2019-04-07T12:18:22.282Z,65.40
2019-04-07T12:21:02.292Z,66.60
2019-04-07T12:23:46.987Z,66.40
2019-04-07T12:26:26.000Z,65.60
2019-04-07T12:28:56.962Z,64.40
2019-04-07T12:31:44.226Z,64.10
2019-04-07T12:34:15.461Z,64.90
2019-04-07T12:36:48.326Z,65.20
2019-04-07T12:39:26.932Z,65.50
2019-04-07T12:42:07.138Z,65.20
2019-04-07T12:44:45.239Z,64.60
2019-04-07T12:47:15.464Z,65.00
2019-04-07T12:49:48.744Z,64.30
2019-04-07T12:52:32.232Z,64.20
2019-04-07T12:55:18.024Z,65.70
2019-04-07T12:57:50.041Z,65.00
2019-04-07T13:00:23.268Z,64.80
2019-04-07T13:03:01.717Z,64.50
2019-04-07T13:05:35.918Z,64.20
2019-04-07T13:08:12.751Z,63.70
2019-04-07T13:10:42.962Z,63.30
2019-04-07T13:13:31.630Z,62.70
2019-04-07T13:16:03.432Z,61.10
2019-04-07T13:18:46.639Z,61.70
2019-04-07T13:21:22.370Z,62.60
2019-04-07T13:23:51.449Z,62.10
2019-04-07T13:26:32.007Z,62.30
2019-04-07T13:29:09.569Z,63.30
2019-04-07T13:31:58.050Z,63.30
2019-04-07T13:34:28.578Z,63.80
2019-04-07T13:37:00.163Z,64.30
2019-04-07T13:39:44.998Z,65.00
2019-04-07T13:42:20.831Z,65.30
2019-04-07T13:45:11.236Z,66.30
2019-04-07T13:47:53.407Z,66.50
2019-04-07T13:50:40.559Z,67.40
2019-04-07T13:53:20.704Z,66.40
2019-04-07T13:56:01.831Z,66.60
2019-04-07T13:58:35.146Z,67.70
2019-04-07T14:01:20.870Z,68.30
2019-04-07T14:04:07.855Z,67.50
2019-04-07T14:06:38.089Z,67.70
2019-04-07T14:09:27.190Z,67.20
2019-04-07T14:12:14.275Z,67.10
2019-04-07T14:15:03.990Z,65.90
2019-04-07T14:17:34.086Z,66.70
2019-04-07T14:20:04.955Z,67.70
2019-04-07T14:22:43.815Z,67.90
2019-04-07T14:25:30.981Z,68.80
2019-04-07T14:28:07.864Z,67.90
2019-04-07T14:30:56.330Z,68.40
2019-04-07T14:33:28.220Z,67.20
2019-04-07T14:36:04.377Z,67.40
2019-04-07T14:38:43.267Z,68.10
2019-04-07T14:41:22.073Z,67.70
2019-04-07T14:44:07.130Z,68.10
2019-04-07T14:46:43.747Z,68.60
2019-04-07T14:49:16.323Z,68.40
2019-04-07T14:51:58.631Z,66.70
2019-04-07T14:54:44.878Z,66.00
2019-04-07T14:57:18.938Z,67.10
2019-04-07T15:00:05.846Z,68.10
2019-04-07T15:02:34.389Z,67.30
2019-04-07T15:05:13.777Z,63.80
2019-04-07T15:07:57.926Z,63.10
2019-04-07T15:10:34.077Z,61.80
2019-04-07T15:13:13.260Z,62.10
2019-04-07T15:15:41.787Z,62.40
2019-04-07T15:18:10.249Z,61.90
2019-04-07T15:20:38.893Z,61.50
2019-04-07T15:23:09.001Z,60.60
2019-04-07T15:25:40.626Z,61.00
2019-04-07T15:28:07.518Z,62.20
2019-04-07T15:30:36.297Z,61.00
2019-04-07T15:33:05.381Z,60.80
2019-04-07T15:35:35.237Z,60.40
2019-04-07T15:38:03.900Z,61.70
2019-04-07T15:40:35.022Z,61.00
2019-04-07T15:43:04.753Z,60.50
2019-04-07T15:45:33.356Z,61.30
2019-04-07T15:48:02.836Z,61.70
2019-04-07T15:50:31.510Z,61.50
2019-04-07T15:52:59.942Z,61.90
2019-04-07T15:55:42.400Z,61.70
2019-04-07T15:57:59.618Z,62.00
2019-04-07T16:00:28.373Z,62.20
2019-04-07T16:02:57.783Z,62.80
2019-04-07T16:05:26.750Z,63.20
2019-04-07T16:07:56.182Z,62.10
2019-04-07T16:10:24.825Z,62.70
2019-04-07T16:12:54.127Z,62.60
2019-04-07T16:15:44.949Z,61.90
2019-04-07T16:18:32.246Z,62.10
2019-04-07T16:21:02.876Z,62.20
2019-04-07T16:23:31.627Z,62.20
2019-04-07T16:26:01.135Z,62.00
2019-04-07T16:28:30.774Z,62.50
2019-04-07T16:30:59.306Z,62.60
2019-04-07T16:33:27.707Z,62.60
2019-04-07T16:35:56.627Z,63.20
2019-04-07T16:38:25.428Z,63.30
2019-04-07T16:40:53.958Z,63.50
2019-04-07T16:43:22.384Z,64.00
2019-04-07T16:45:50.859Z,64.30
2019-04-07T16:48:19.766Z,64.30
2019-04-07T16:50:51.843Z,64.90
2019-04-07T16:53:18.495Z,65.20
2019-04-07T16:55:50.546Z,65.10
2019-04-07T16:58:17.836Z,65.40
2019-04-07T17:00:47.345Z,65.80
2019-04-07T17:03:16.060Z,66.10
2019-04-07T17:05:45.085Z,67.00
2019-04-07T17:08:18.280Z,67.50
2019-04-07T17:10:43.803Z,68.40
2019-04-07T17:13:19.809Z,69.80
2019-04-07T17:15:43.204Z,69.80
2019-04-07T17:18:38.954Z,71.10
2019-04-07T17:21:13.984Z,72.10
2019-04-07T17:23:42.872Z,71.60
2019-04-07T17:26:11.780Z,73.00
2019-04-07T17:28:44.440Z,74.80
2019-04-07T17:31:11.771Z,75.50
2019-04-07T17:33:41.391Z,76.30
2019-04-07T17:36:10.043Z,77.30
2019-04-07T17:38:40.924Z,79.00
2019-04-07T17:41:10.298Z,79.20
2019-04-07T17:43:59.353Z,79.10
2019-04-07T17:46:28.650Z,80.40
2019-04-07T17:49:08.846Z,79.70
2019-04-07T17:51:55.277Z,81.00
2019-04-07T17:54:27.752Z,81.00
2019-04-07T17:57:05.285Z,80.40
2019-04-07T17:59:44.879Z,80.60
2019-04-07T18:02:28.072Z,81.70
2019-04-07T18:05:08.472Z,81.70
2019-04-07T18:07:56.963Z,84.70
2019-04-07T18:10:28.494Z,86.00
2019-04-07T18:13:16.966Z,87.10
2019-04-07T18:15:49.924Z,87.90
2019-04-07T18:18:25.763Z,88.60
2019-04-07T18:21:07.223Z,89.20
2019-04-07T18:26:56.900Z,90.10
2019-04-07T18:29:29.672Z,90.50
2019-04-07T18:32:05.053Z,90.90
2019-04-07T18:34:51.687Z,91.00
2019-04-07T18:37:27.787Z,91.40
2019-04-07T18:42:52.206Z,92.10
2019-04-07T18:45:25.239Z,92.40
2019-04-07T18:48:04.537Z,92.40
2019-04-07T18:50:51.409Z,91.90
2019-04-07T18:53:22.109Z,90.10
2019-04-07T18:56:09.859Z,91.30
2019-04-07T18:58:56.244Z,90.90
2019-04-07T19:01:26.501Z,91.20
2019-04-07T19:04:05.376Z,91.40
2019-04-07T19:06:37.776Z,91.60
2019-04-07T19:09:18.931Z,91.40
2019-04-07T19:12:13.503Z,91.00
2019-04-07T19:14:46.053Z,90.40
2019-04-07T19:17:24.049Z,90.40
2019-04-07T19:19:59.214Z,90.50
2019-04-07T19:22:49.051Z,90.60
2019-04-07T19:25:35.646Z,90.70
2019-04-07T19:28:24.011Z,90.80
2019-04-07T19:30:57.154Z,91.10
2019-04-07T19:33:36.162Z,91.70
2019-04-07T19:36:18.044Z,92.40
2019-04-07T19:39:04.806Z,93.70
2019-04-07T19:44:37.080Z,95.80
2019-04-07T19:47:06.582Z,96.50
2019-04-07T19:52:37.581Z,97.10
2019-04-07T19:55:14.293Z,97.20
2019-04-07T19:57:53.352Z,97.20
2019-04-07T20:00:27.501Z,97.30
2019-04-07T20:02:58.135Z,97.20
2019-04-07T20:05:37.112Z,97.20
2019-04-07T20:08:07.778Z,97.40
2019-04-07T20:13:39.548Z,97.10
2019-04-07T20:16:26.891Z,96.90
2019-04-07T20:19:00.846Z,96.80
2019-04-07T20:21:38.047Z,96.70
2019-04-07T20:24:18.017Z,96.80
2019-04-07T20:27:03.431Z,96.80
2019-04-07T20:29:41.904Z,97.40
2019-04-07T20:32:18.645Z,97.90
2019-04-07T20:34:48.698Z,98.10
2019-04-07T20:37:28.702Z,98.80
2019-04-07T20:39:59.355Z,99.20
2019-04-07T20:42:31.120Z,99.50
2019-04-07T20:45:15.329Z,99.00
2019-04-07T20:47:59.213Z,99.50
2019-04-07T20:50:45.747Z,99.20
2019-04-07T20:53:33.622Z,99.20
2019-04-07T20:56:20.783Z,98.30
2019-04-07T21:01:59.889Z,99.90
2019-04-07T21:04:37.496Z,99.90
2019-04-07T21:07:13.454Z,99.90
2019-04-07T21:09:55.568Z,99.90
2019-04-07T21:12:30.145Z,99.90
2019-04-07T21:15:16.192Z,99.90
2019-04-07T21:17:43.969Z,99.90
2019-04-07T21:20:28.877Z,99.90
2019-04-07T21:23:14.032Z,99.90
2019-04-07T21:25:59.462Z,99.90
2019-04-07T21:28:37.763Z,99.90
2019-04-07T21:31:23.433Z,99.90
2019-04-07T21:34:01.261Z,99.90
2019-04-07T21:36:32.141Z,99.90
2019-04-07T21:39:02.306Z,99.90
2019-04-07T21:41:45.545Z,99.90
2019-04-07T21:44:33.757Z,99.90
2019-04-07T21:47:04.322Z,99.90
2019-04-07T21:49:37.192Z,99.90
2019-04-07T21:52:09.038Z,99.90
2019-04-07T21:54:44.655Z,99.90
2019-04-07T21:57:17.319Z,99.90
2019-04-07T21:59:47.910Z,99.90
2019-04-07T22:02:17.998Z,99.90
2019-04-07T22:04:56.594Z,99.90
2019-04-07T22:07:31.530Z,99.90
2019-04-07T22:12:54.015Z,99.90
2019-04-07T22:15:22.661Z,99.90
2019-04-07T22:17:52.044Z,99.90
2019-04-07T22:20:21.668Z,99.90
2019-04-07T22:22:50.187Z,99.90
2019-04-07T22:25:42.551Z,99.90
2019-04-07T22:28:11.698Z,99.90
2019-04-07T22:30:43.548Z,99.90
2019-04-07T22:33:12.417Z,99.90
2019-04-07T22:35:42.759Z,99.90
2019-04-07T22:38:11.446Z,99.90
2019-04-07T22:40:39.914Z,99.90
2019-04-07T22:43:09.261Z,99.90
2019-04-07T22:45:38.066Z,99.90
2019-04-07T22:48:08.264Z,99.90
2019-04-07T22:50:38.450Z,99.90
2019-04-07T22:53:07.297Z,99.90
2019-04-07T22:55:36.090Z,99.90
2019-04-07T22:58:07.594Z,99.90
2019-04-07T23:00:35.986Z,99.90
2019-04-07T23:03:05.742Z,99.90
2019-04-07T23:05:34.279Z,99.90
2019-04-07T23:08:02.684Z,99.90
2019-04-07T23:10:31.590Z,99.90
2019-04-07T23:13:00.090Z,99.90
2019-04-07T23:15:38.660Z,99.90
2019-04-07T23:17:58.668Z,99.90
2019-04-07T23:20:27.155Z,99.90
2019-04-07T23:22:55.566Z,99.90
2019-04-07T23:25:23.983Z,99.90
2019-04-07T23:27:52.461Z,99.90
2019-04-07T23:30:23.625Z,99.90
2019-04-07T23:32:52.034Z,99.90
2019-04-07T23:35:20.463Z,99.90
2019-04-07T23:37:48.899Z,99.90
2019-04-07T23:40:18.176Z,99.90
2019-04-07T23:42:46.781Z,99.90
2019-04-07T23:45:15.307Z,99.90
2019-04-07T23:47:43.698Z,99.90
2019-04-07T23:50:12.533Z,99.90
2019-04-07T23:52:41.190Z,99.90
2019-04-07T23:55:10.708Z,99.90
2019-04-07T23:57:40.058Z,99.90
